createdAt,value
2019-03-29T00:02:13.737Z,101173.73
2019-03-29T00:08:18.324Z,101179.75
2019-03-29T00:14:23.663Z,101182.30
2019-03-29T00:20:28.316Z,101180.23
2019-03-29T00:26:32.899Z,101183.28
2019-03-29T00:32:37.514Z,101181.14
2019-03-29T00:38:42.103Z,101176.88
2019-03-29T00:44:46.703Z,101168.45
2019-03-29T00:50:51.254Z,101154.78
2019-03-29T00:56:55.905Z,101155.82
2019-03-29T01:03:00.472Z,101147.52
2019-03-29T01:09:06.240Z,101141.52
2019-03-29T01:15:11.285Z,101130.63
2019-03-29T01:21:15.855Z,101124.45
2019-03-29T01:27:20.410Z,101122.67
2019-03-29T01:33:25.080Z,101128.16
2019-03-29T01:39:29.940Z,101114.95
2019-03-29T01:45:34.579Z,101110.95
2019-03-29T01:51:39.137Z,101104.30
2019-03-29T01:57:43.790Z,101107.70
2019-03-29T02:03:48.378Z,101100.44
2019-03-29T02:09:52.926Z,101097.62
2019-03-29T02:15:57.490Z,101095.76
2019-03-29T02:22:02.114Z,101091.77
2019-03-29T02:28:06.777Z,101093.89
2019-03-29T02:34:11.354Z,101087.98
2019-03-29T02:40:16.151Z,101094.06
2019-03-29T02:46:20.775Z,101083.50
2019-03-29T02:52:25.340Z,101084.27
2019-03-29T02:58:29.927Z,101078.64
2019-03-29T03:04:34.460Z,101079.75
2019-03-29T03:10:39.037Z,101081.80
2019-03-29T03:16:43.666Z,101074.37
2019-03-29T03:22:48.369Z,101079.76
2019-03-29T03:28:52.951Z,101070.97
2019-03-29T03:34:57.581Z,101063.21
2019-03-29T03:41:02.313Z,101062.23
2019-03-29T03:47:06.863Z,101058.94
2019-03-29T03:53:12.011Z,101053.85
2019-03-29T03:59:16.734Z,101044.34
2019-03-29T04:05:21.299Z,101051.97
2019-03-29T04:11:25.878Z,101042.86
2019-03-29T04:17:30.520Z,101043.78
2019-03-29T04:23:35.085Z,101037.33
2019-03-29T04:29:39.643Z,101044.70
2019-03-29T04:35:44.350Z,101047.09
2019-03-29T04:41:50.077Z,101053.20
2019-03-29T04:47:54.709Z,101058.05
2019-03-29T04:53:59.295Z,101061.56
2019-03-29T05:00:04.303Z,101063.28
2019-03-29T05:06:08.877Z,101060.73
2019-03-29T05:12:13.435Z,101059.23
2019-03-29T05:18:18.406Z,101059.12
2019-03-29T05:24:22.970Z,101060.80
2019-03-29T05:30:27.528Z,101054.97
2019-03-29T05:36:32.100Z,101062.36
2019-03-29T05:42:36.657Z,101059.19
2019-03-29T05:48:41.282Z,101058.48
2019-03-29T05:54:45.841Z,101057.37
2019-03-29T06:00:50.401Z,101061.95
2019-03-29T06:06:54.981Z,101057.72
2019-03-29T06:12:59.558Z,101056.31
2019-03-29T06:19:04.261Z,101051.41
2019-03-29T06:25:09.755Z,101054.36
2019-03-29T06:31:14.502Z,101043.27
2019-03-29T06:37:20.983Z,101040.52
2019-03-29T06:43:25.552Z,101030.67
2019-03-29T06:49:30.129Z,101033.57
2019-03-29T06:55:34.766Z,101028.53
2019-03-29T07:01:39.405Z,101027.33
2019-03-29T07:07:44.660Z,101019.54
2019-03-29T07:13:57.257Z,101016.13
2019-03-29T07:19:55.924Z,101017.91
2019-03-29T07:26:00.486Z,101016.04
2019-03-29T07:32:05.066Z,101011.65
2019-03-29T07:38:09.645Z,101019.27
2019-03-29T07:44:14.210Z,101017.41
2019-03-29T07:50:19.252Z,101020.78
2019-03-29T07:56:24.032Z,101016.32
2019-03-29T08:02:29.020Z,101013.53
2019-03-29T08:08:34.469Z,101011.54
2019-03-29T08:14:39.630Z,101013.98
2019-03-29T08:20:44.802Z,101017.00
2019-03-29T08:26:49.658Z,101017.49
2019-03-29T08:32:54.228Z,101018.62
2019-03-29T08:38:58.791Z,101010.10
2019-03-29T08:45:03.759Z,101005.88
2019-03-29T08:51:08.343Z,101008.69
2019-03-29T08:57:12.995Z,101004.08
2019-03-29T09:03:17.720Z,101004.48
2019-03-29T09:09:22.425Z,101004.51
2019-03-29T09:15:27.083Z,100994.00
2019-03-29T09:21:31.647Z,100992.33
2019-03-29T09:27:36.227Z,100997.48
2019-03-29T09:33:41.084Z,100985.78
2019-03-29T09:39:45.673Z,100973.73
2019-03-29T09:45:50.316Z,100974.09
2019-03-29T09:51:54.917Z,100966.08
2019-03-29T09:57:59.719Z,100949.66
2019-03-29T10:04:04.445Z,100947.98
2019-03-29T10:10:09.938Z,100936.41
2019-03-29T10:16:14.708Z,100930.02
2019-03-29T10:22:20.118Z,100918.47
2019-03-29T10:28:24.895Z,100918.72
2019-03-29T10:34:29.980Z,100912.96
2019-03-29T10:40:34.871Z,100911.23
2019-03-29T10:46:39.505Z,100893.68
2019-03-29T10:52:44.093Z,100889.84
2019-03-29T10:58:48.668Z,100877.11
2019-03-29T11:04:53.228Z,100881.33
2019-03-29T11:10:57.791Z,100863.33
2019-03-29T11:17:02.363Z,100863.03
2019-03-29T11:23:07.095Z,100838.64
2019-03-29T11:29:11.736Z,100834.48
2019-03-29T11:35:16.373Z,100828.94
2019-03-29T11:41:21.010Z,100819.80
2019-03-29T11:47:25.577Z,100818.46
2019-03-29T11:53:30.179Z,100801.66
2019-03-29T11:59:34.722Z,100796.50
2019-03-29T12:05:39.631Z,100798.73
2019-03-29T12:11:44.187Z,100788.18
2019-03-29T12:17:48.757Z,100785.18
2019-03-29T12:23:53.394Z,100775.08
2019-03-29T12:29:57.951Z,100768.61
2019-03-29T12:36:02.626Z,100753.34
2019-03-29T12:42:07.176Z,100749.23
2019-03-29T12:48:11.745Z,100747.34
2019-03-29T12:54:17.397Z,100731.27
2019-03-29T13:00:22.223Z,100718.25
2019-03-29T13:06:26.862Z,100713.67
2019-03-29T13:12:31.512Z,100704.80
2019-03-29T13:18:36.202Z,100696.08
2019-03-29T13:24:40.885Z,100688.55
2019-03-29T13:30:45.699Z,100678.72
2019-03-29T13:36:50.345Z,100672.84
2019-03-29T13:42:54.927Z,100660.61
2019-03-29T13:48:59.536Z,100659.44
2019-03-29T13:55:04.640Z,100651.44
2019-03-29T14:01:09.265Z,100644.95
2019-03-29T14:07:13.837Z,100632.61
2019-03-29T14:13:19.791Z,100634.31
2019-03-29T14:19:25.923Z,100621.35
2019-03-29T14:25:30.719Z,100617.85
2019-03-29T14:31:35.273Z,100608.99
2019-03-29T14:37:39.837Z,100602.42
2019-03-29T14:43:44.390Z,100593.26
2019-03-29T14:49:48.973Z,100582.48
2019-03-29T14:55:53.617Z,100575.37
2019-03-29T15:01:58.907Z,100574.60
2019-03-29T15:08:03.818Z,100559.42
2019-03-29T15:14:08.459Z,100558.80
2019-03-29T15:20:14.859Z,100551.44
2019-03-29T15:26:19.760Z,100548.48
2019-03-29T15:32:24.326Z,100537.31
2019-03-29T15:38:28.885Z,100531.13
2019-03-29T15:44:33.844Z,100522.27
2019-03-29T15:50:38.403Z,100530.22
2019-03-29T15:56:42.979Z,100525.82
2019-03-29T16:02:47.652Z,100521.47
2019-03-29T16:08:52.240Z,100506.84
2019-03-29T16:14:56.820Z,100512.16
2019-03-29T16:21:01.398Z,100505.20
2019-03-29T16:27:06.066Z,100496.41
2019-03-29T16:33:10.605Z,100500.17
2019-03-29T16:39:15.240Z,100490.72
2019-03-29T16:45:19.886Z,100475.25
2019-03-29T16:51:24.540Z,100462.80
2019-03-29T16:57:29.176Z,100461.77
2019-03-29T17:03:33.808Z,100455.53
2019-03-29T17:09:38.371Z,100452.20
2019-03-29T17:15:42.930Z,100454.14
2019-03-29T17:21:47.567Z,100450.72
2019-03-29T17:27:52.420Z,100444.05
2019-03-29T17:33:58.706Z,100450.91
2019-03-29T17:40:03.629Z,100446.18
2019-03-29T17:46:16.240Z,100444.52
2019-03-29T17:52:14.504Z,100443.64
2019-03-29T17:58:19.147Z,100442.99
2019-03-29T18:04:23.710Z,100457.08
2019-03-29T18:10:29.795Z,100454.99
2019-03-29T18:16:34.355Z,100467.63
2019-03-29T18:22:39.001Z,100466.81
2019-03-29T18:28:43.646Z,100465.13
2019-03-29T18:34:48.681Z,100462.39
2019-03-29T18:40:53.245Z,100457.05
2019-03-29T18:46:57.902Z,100467.46
2019-03-29T18:53:02.611Z,100469.80
2019-03-29T18:59:07.224Z,100467.52
2019-03-29T19:05:24.784Z,100464.70
2019-03-29T19:11:29.346Z,100456.95
2019-03-29T19:17:33.928Z,100463.42
2019-03-29T19:23:38.516Z,100465.09
2019-03-29T19:29:43.238Z,100464.28
2019-03-29T19:35:47.804Z,100466.89
2019-03-29T19:41:52.448Z,100468.11
2019-03-29T19:47:57.019Z,100471.16
2019-03-29T19:54:07.494Z,100467.98
2019-03-29T20:00:14.017Z,100456.78
2019-03-29T20:06:18.609Z,100450.84
2019-03-29T20:12:25.146Z,100449.53
2019-03-29T20:18:29.645Z,100452.91
2019-03-29T20:24:34.274Z,100453.94
2019-03-29T20:30:38.839Z,100456.30
2019-03-29T20:36:43.422Z,100455.11
2019-03-29T20:42:48.244Z,100465.98
2019-03-29T20:48:52.943Z,100460.48
2019-03-29T20:54:57.495Z,100457.45
2019-03-29T21:01:02.077Z,100456.61
2019-03-29T21:07:06.657Z,100463.28
2019-03-29T21:13:11.247Z,100458.41
2019-03-29T21:19:15.803Z,100452.16
2019-03-29T21:25:20.369Z,100440.11
2019-03-29T21:31:24.933Z,100448.48
2019-03-29T21:37:29.519Z,100446.83
2019-03-29T21:43:34.058Z,100454.55
2019-03-29T21:49:38.635Z,100444.01
2019-03-29T21:55:43.171Z,100444.23
2019-03-29T22:01:47.744Z,100442.23
2019-03-29T22:07:52.281Z,100444.83
2019-03-29T22:13:56.929Z,100439.58
2019-03-29T22:20:01.541Z,100431.80
2019-03-29T22:26:06.086Z,100438.56
2019-03-29T22:32:10.644Z,100426.70
2019-03-29T22:38:15.269Z,100423.60
2019-03-29T22:44:19.871Z,100423.91
2019-03-29T22:50:24.497Z,100423.20
2019-03-29T22:56:29.115Z,100422.53
2019-03-29T23:02:33.881Z,100416.55
2019-03-29T23:08:38.487Z,100411.84
2019-03-29T23:14:43.214Z,100397.37
2019-03-29T23:20:47.790Z,100394.48
2019-03-29T23:26:52.413Z,100394.66
2019-03-29T23:32:57.051Z,100386.91
2019-03-29T23:39:01.598Z,100376.92
2019-03-29T23:45:09.108Z,100378.34
2019-03-29T23:51:13.652Z,100371.56
2019-03-29T23:57:18.281Z,100364.02
